Time;durP1;ratioP1;P1;durP2;ratioP2;P2;SDS_P1;SDS_P2;PMS_P1;PMS_P2;Temp;Humidity;BMP_temperature;BMP_pressure;BME280_temperature;BME280_humidity;BME280_pressure;Samples;Min_cycle;Max_cycle;Signal;HPM_P1;HPM_P2
2022/08/24 00:00:59;;;;;;;6.90;5.30;;;20.00;99.90;;;;;;4978609;28;20051;-71
2022/08/24 00:03:25;;;;;;;5.68;4.65;;;20.00;99.90;;;;;;4978185;28;20057;-72
2022/08/24 00:05:52;;;;;;;8.38;4.75;;;19.90;99.90;;;;;;4977763;28;20349;-71
2022/08/24 00:08:18;;;;;;;6.25;5.00;;;20.00;99.90;;;;;;4978435;28;20043;-72
2022/08/24 00:10:44;;;;;;;7.22;4.70;;;19.90;99.90;;;;;;4978333;28;20110;-72
2022/08/24 00:13:10;;;;;;;5.22;4.70;;;19.80;99.90;;;;;;4978224;28;20043;-70
2022/08/24 00:15:36;;;;;;;6.72;5.22;;;19.80;99.90;;;;;;4978267;28;20485;-69
2022/08/24 00:18:02;;;;;;;6.70;5.18;;;19.80;99.90;;;;;;4978236;28;20047;-69
2022/08/24 00:20:28;;;;;;;6.60;4.97;;;19.70;99.90;;;;;;4977390;28;20457;-68
2022/08/24 00:22:53;;;;;;;7.47;5.35;;;19.70;99.90;;;;;;4978175;28;20050;-69
2022/08/24 00:25:19;;;;;;;6.97;5.78;;;19.60;99.90;;;;;;4977978;28;20135;-69
2022/08/24 00:27:45;;;;;;;6.60;5.45;;;19.60;99.90;;;;;;4977983;28;20081;-69
2022/08/24 00:30:15;;;;;;;5.85;5.10;;;19.60;99.90;;;;;;4978072;28;20058;-69
2022/08/24 00:32:42;;;;;;;6.68;5.82;;;19.60;99.90;;;;;;4977319;28;20074;-68
2022/08/24 00:35:09;;;;;;;7.35;4.93;;;19.60;99.90;;;;;;4977633;28;20047;-68
2022/08/24 00:37:36;;;;;;;7.07;5.20;;;19.60;99.90;;;;;;4977629;28;20043;-70
2022/08/24 00:40:10;;;;;;;7.00;4.82;;;19.60;99.90;;;;;;4976949;28;20062;-70
2022/08/24 00:42:39;;;;;;;6.13;4.70;;;19.60;99.90;;;;;;4977573;28;20057;-69
2022/08/24 00:45:08;;;;;;;8.77;6.10;;;19.50;99.90;;;;;;4977541;28;20484;-69
2022/08/24 00:47:45;;;;;;;8.38;4.97;;;19.40;99.90;;;;;;4976954;28;20043;-68
2022/08/24 00:50:17;;;;;;;6.90;4.57;;;19.40;99.90;;;;;;4977289;28;20456;-68
2022/08/24 00:52:49;;;;;;;8.05;4.88;;;19.40;99.90;;;;;;4977642;28;20051;-69
2022/08/24 00:55:25;;;;;;;9.38;5.47;;;19.40;99.90;;;;;;4977583;28;20093;-69
2022/08/24 00:57:56;;;;;;;8.05;5.15;;;19.30;99.90;;;;;;4977240;28;20053;-69
2022/08/24 01:00:25;;;;;;;6.50;5.05;;;19.30;99.90;;;;;;4976771;28;20090;-69
2022/08/24 01:03:03;;;;;;;7.10;5.75;;;19.20;99.90;;;;;;4977317;28;20142;-69
2022/08/24 01:05:32;;;;;;;8.13;7.13;;;19.20;99.90;;;;;;4977314;28;20394;-69
2022/08/24 01:07:59;;;;;;;7.15;6.28;;;19.20;99.90;;;;;;4977372;28;20050;-69
2022/08/24 01:10:27;;;;;;;7.10;5.82;;;19.20;99.90;;;;;;4977336;28;20126;-68
2022/08/24 01:12:57;;;;;;;10.45;5.60;;;19.20;99.90;;;;;;4976425;28;20130;-69
2022/08/24 01:15:23;;;;;;;7.05;5.65;;;19.10;99.90;;;;;;4957738;28;20047;-68
2022/08/24 01:20:35;;;;;;;6.95;6.07;;;19.10;99.90;;;;;;4957599;29;20446;-70
2022/08/24 01:23:19;;;;;;;7.43;5.57;;;19.00;99.90;;;;;;4957553;28;20086;-68
2022/08/24 01:25:45;;;;;;;5.97;5.28;;;19.10;99.90;;;;;;4957512;29;20043;-68
2022/08/24 01:28:15;;;;;;;7.00;5.38;;;19.00;99.90;;;;;;4970603;28;20070;-68
2022/08/24 01:30:42;;;;;;;6.15;4.93;;;19.00;99.90;;;;;;4976962;28;20376;-69
2022/08/24 01:33:10;;;;;;;7.28;5.50;;;19.00;99.90;;;;;;4976633;28;20047;-68
2022/08/24 01:35:37;;;;;;;6.18;4.95;;;19.00;99.90;;;;;;4976382;28;20470;-68
2022/08/24 01:38:07;;;;;;;9.48;5.80;;;18.90;99.90;;;;;;4976756;28;20130;-68
2022/08/24 01:40:37;;;;;;;6.85;5.35;;;19.00;99.90;;;;;;4976411;28;20059;-68
2022/08/24 01:43:05;;;;;;;6.70;5.80;;;19.00;99.90;;;;;;4976594;28;20065;-68
2022/08/24 01:45:32;;;;;;;6.07;5.45;;;19.00;99.90;;;;;;4976668;28;20469;-68
2022/08/24 01:47:58;;;;;;;8.77;6.57;;;19.00;99.90;;;;;;4976454;28;20118;-69
2022/08/24 01:50:25;;;;;;;7.65;5.90;;;19.00;99.90;;;;;;4976351;28;20061;-69
2022/08/24 01:52:51;;;;;;;6.60;5.57;;;19.00;99.90;;;;;;4976438;28;20047;-68
2022/08/24 01:55:17;;;;;;;9.75;5.47;;;19.00;99.90;;;;;;4976065;28;20042;-69
2022/08/24 01:57:43;;;;;;;7.28;5.65;;;18.90;99.90;;;;;;4976138;28;20039;-69
2022/08/24 02:00:15;;;;;;;6.78;5.78;;;19.00;99.90;;;;;;4975760;28;20055;-69
2022/08/24 02:02:42;;;;;;;8.10;6.05;;;18.90;99.90;;;;;;4976146;28;20046;-67
2022/08/24 02:05:11;;;;;;;6.30;4.75;;;18.90;99.90;;;;;;4976342;28;20089;-69
2022/08/24 02:07:36;;;;;;;7.65;5.45;;;18.90;99.90;;;;;;4976250;28;20051;-68
2022/08/24 02:10:05;;;;;;;7.00;6.22;;;18.80;99.90;;;;;;4976044;28;20133;-69
2022/08/24 02:12:32;;;;;;;10.05;7.82;;;18.90;99.90;;;;;;4976318;28;20046;-69
2022/08/24 02:14:57;;;;;;;10.20;7.18;;;18.80;99.90;;;;;;4975991;28;20065;-68
2022/08/24 02:17:23;;;;;;;7.55;6.35;;;18.80;99.90;;;;;;4976090;28;20505;-69
2022/08/24 02:19:48;;;;;;;9.82;7.32;;;18.80;99.90;;;;;;4976211;28;20046;-68
2022/08/24 02:22:14;;;;;;;10.52;6.35;;;18.90;99.90;;;;;;4976106;28;20134;-67
2022/08/24 02:24:41;;;;;;;8.20;6.80;;;18.90;99.90;;;;;;4976142;28;20195;-69
2022/08/24 02:27:07;;;;;;;9.23;6.20;;;18.90;99.90;;;;;;4980301;28;20429;-68
2022/08/24 02:29:33;;;;;;;8.23;6.63;;;18.80;99.90;;;;;;4980091;28;20089;-70
2022/08/24 02:31:58;;;;;;;10.23;6.80;;;18.90;99.90;;;;;;4980006;28;20047;-70
2022/08/24 02:34:24;;;;;;;8.48;6.90;;;18.80;99.90;;;;;;4979831;28;20512;-68
2022/08/24 02:36:52;;;;;;;6.85;6.10;;;18.90;99.90;;;;;;4980053;28;20050;-70
2022/08/24 02:39:18;;;;;;;8.80;6.85;;;18.80;99.90;;;;;;4979250;28;20466;-68
2022/08/24 02:41:43;;;;;;;9.18;7.32;;;18.80;99.90;;;;;;4979996;28;20046;-68
2022/08/24 02:44:09;;;;;;;8.38;7.00;;;18.80;99.90;;;;;;4979846;28;20050;-69
2022/08/24 02:46:35;;;;;;;10.02;8.23;;;18.80;99.90;;;;;;4979947;28;20054;-69
2022/08/24 02:49:01;;;;;;;10.70;8.40;;;18.70;99.90;;;;;;4979688;28;20457;-69
2022/08/24 02:51:30;;;;;;;8.40;7.53;;;18.70;99.90;;;;;;4979086;28;20047;-68
2022/08/24 02:54:00;;;;;;;8.90;8.07;;;18.80;99.90;;;;;;4979549;28;20365;-68
2022/08/24 02:56:28;;;;;;;9.63;8.10;;;18.80;99.90;;;;;;4979798;28;20431;-68
2022/08/24 02:58:55;;;;;;;10.55;8.45;;;18.70;99.90;;;;;;4979032;28;20058;-70
2022/08/24 03:01:21;;;;;;;12.30;10.07;;;18.80;99.90;;;;;;4979076;28;20131;-70
2022/08/24 03:03:47;;;;;;;10.52;9.32;;;18.70;99.90;;;;;;4979199;28;20438;-68
2022/08/24 03:06:13;;;;;;;9.80;8.80;;;18.70;99.90;;;;;;4979480;28;20442;-68
2022/08/24 03:08:39;;;;;;;10.80;9.70;;;18.80;99.90;;;;;;4979611;28;20039;-68
2022/08/24 03:11:05;;;;;;;10.43;9.43;;;18.80;99.90;;;;;;4979414;28;20058;-68
2022/08/24 03:13:31;;;;;;;13.80;10.95;;;18.80;99.90;;;;;;4978954;28;20043;-69
2022/08/24 03:15:58;;;;;;;13.02;9.85;;;18.80;99.90;;;;;;4958513;29;20066;-69
2022/08/24 03:18:25;;;;;;;9.95;7.95;;;18.80;99.90;;;;;;4970964;28;20050;-69
2022/08/24 03:20:52;;;;;;;9.18;8.20;;;18.80;99.90;;;;;;4978820;28;20050;-69
2022/08/24 03:23:17;;;;;;;10.82;9.05;;;18.80;99.90;;;;;;4979197;28;20078;-69
2022/08/24 03:25:43;;;;;;;10.50;9.15;;;18.80;99.90;;;;;;4979039;28;20078;-69
2022/08/24 03:28:10;;;;;;;13.13;11.05;;;18.80;99.90;;;;;;4979139;28;20047;-69
2022/08/24 03:30:38;;;;;;;13.63;11.68;;;18.90;99.90;;;;;;4961868;28;20046;-70
2022/08/24 03:33:04;;;;;;;18.77;16.70;;;18.90;99.90;;;;;;4978294;28;20106;-68
2022/08/24 03:35:30;;;;;;;15.10;13.05;;;18.90;99.90;;;;;;4978062;28;20047;-68
2022/08/24 03:37:56;;;;;;;15.57;12.13;;;19.00;99.90;;;;;;4979013;28;20039;-68
2022/08/24 03:40:22;;;;;;;15.48;13.85;;;19.00;99.90;;;;;;4978692;28;20123;-70
2022/08/24 03:42:49;;;;;;;13.82;12.32;;;18.90;99.90;;;;;;4978316;28;20078;-68
2022/08/24 03:45:14;;;;;;;20.52;16.75;;;19.00;99.90;;;;;;4978589;28;20125;-69
2022/08/24 03:47:40;;;;;;;17.08;15.30;;;18.90;99.90;;;;;;4978799;28;20410;-68
2022/08/24 03:50:08;;;;;;;21.05;17.38;;;19.00;99.90;;;;;;4978572;28;20182;-68
2022/08/24 03:52:34;;;;;;;21.92;19.45;;;18.90;99.90;;;;;;4979006;28;20074;-69
2022/08/24 03:55:01;;;;;;;23.60;18.15;;;18.90;99.90;;;;;;4978131;28;20057;-69
2022/08/24 03:57:26;;;;;;;20.10;15.88;;;18.90;99.90;;;;;;4978081;28;20381;-68
2022/08/24 03:59:53;;;;;;;17.02;15.23;;;18.90;99.90;;;;;;4978083;28;20065;-68
2022/08/24 04:02:19;;;;;;;16.52;14.93;;;18.80;99.90;;;;;;4978145;28;20429;-68
2022/08/24 04:04:45;;;;;;;19.60;16.88;;;18.80;99.90;;;;;;4978451;28;20043;-68
2022/08/24 04:07:11;;;;;;;18.27;15.88;;;18.80;99.90;;;;;;4978417;28;20464;-69
2022/08/24 04:09:36;;;;;;;18.10;16.20;;;18.80;99.90;;;;;;4978322;28;20126;-69
2022/08/24 04:12:02;;;;;;;18.70;16.35;;;18.70;99.90;;;;;;4976677;28;20046;-68
2022/08/24 04:14:28;;;;;;;20.10;17.98;;;18.70;99.90;;;;;;4977503;28;20120;-67
2022/08/24 04:16:54;;;;;;;23.65;21.10;;;18.70;99.90;;;;;;4978164;28;20042;-69
2022/08/24 04:19:19;;;;;;;23.20;20.75;;;18.80;99.90;;;;;;4978194;28;20043;-68
2022/08/24 04:21:45;;;;;;;26.63;23.73;;;18.70;99.90;;;;;;4978349;28;20046;-68
2022/08/24 04:24:11;;;;;;;25.70;22.95;;;18.80;99.90;;;;;;4977970;28;20173;-68
2022/08/24 04:26:39;;;;;;;26.92;24.08;;;18.80;99.90;;;;;;4977409;28;20468;-68
2022/08/24 04:29:10;;;;;;;25.92;22.50;;;18.80;99.90;;;;;;4977324;28;20072;-68
2022/08/24 04:31:37;;;;;;;30.75;25.20;;;18.80;99.90;;;;;;4977370;28;20450;-69
2022/08/24 04:34:03;;;;;;;26.58;23.88;;;18.80;99.90;;;;;;4977406;28;20357;-68
2022/08/24 04:36:29;;;;;;;32.13;28.55;;;18.80;99.90;;;;;;4977970;28;20046;-68
2022/08/24 04:38:54;;;;;;;30.58;27.08;;;18.90;99.90;;;;;;4977683;28;20039;-69
2022/08/24 04:41:20;;;;;;;32.80;27.88;;;18.90;99.90;;;;;;4977866;28;20489;-69
2022/08/24 04:43:48;;;;;;;34.88;26.33;;;18.80;99.90;;;;;;4977785;28;20047;-68
2022/08/24 04:46:15;;;;;;;29.02;25.27;;;18.90;99.90;;;;;;4977420;28;20117;-69
2022/08/24 04:48:43;;;;;;;31.92;28.02;;;18.90;99.90;;;;;;4976500;28;20070;-68
2022/08/24 04:51:10;;;;;;;28.85;25.77;;;18.90;99.90;;;;;;4977317;28;20077;-69
2022/08/24 04:53:36;;;;;;;29.85;25.65;;;18.90;99.90;;;;;;4977724;28;20130;-68
2022/08/24 04:56:03;;;;;;;31.05;26.95;;;18.90;99.90;;;;;;4977511;28;20065;-68
2022/08/24 04:58:29;;;;;;;31.92;26.70;;;18.90;99.90;;;;;;4977244;28;20179;-69
2022/08/24 05:00:55;;;;;;;27.63;24.08;;;18.90;99.90;;;;;;4976716;28;20039;-68
2022/08/24 05:03:21;;;;;;;30.42;27.27;;;19.00;99.90;;;;;;4976912;28;20075;-72
2022/08/24 05:05:49;;;;;;;35.25;28.25;;;19.00;99.90;;;;;;4977406;28;20450;-70
2022/08/24 05:08:17;;;;;;;27.92;24.70;;;19.00;99.90;;;;;;4977273;28;20481;-71
2022/08/24 05:10:45;;;;;;;30.23;26.90;;;19.00;99.90;;;;;;4976855;28;20420;-71
2022/08/24 05:13:11;;;;;;;30.52;27.42;;;19.00;99.90;;;;;;4977115;28;20050;-70
2022/08/24 05:15:42;;;;;;;34.13;29.80;;;19.00;99.90;;;;;;4977199;28;20065;-69
2022/08/24 05:18:07;;;;;;;32.47;29.08;;;19.00;99.90;;;;;;4976904;28;20051;-71
2022/08/24 05:20:34;;;;;;;31.52;25.77;;;19.10;99.90;;;;;;4976534;28;20132;-70
2022/08/24 05:23:00;;;;;;;34.92;30.08;;;19.10;99.90;;;;;;4976880;28;20047;-73
2022/08/24 05:25:26;;;;;;;35.95;32.08;;;19.10;99.90;;;;;;4977172;28;20047;-73
2022/08/24 05:27:52;;;;;;;36.25;32.53;;;19.10;99.90;;;;;;4976832;28;20039;-72
2022/08/24 05:30:18;;;;;;;36.85;32.60;;;19.10;99.90;;;;;;4976822;28;20117;-71
2022/08/24 05:32:44;;;;;;;33.25;29.77;;;19.10;99.90;;;;;;4959049;28;20069;-71
2022/08/24 05:35:09;;;;;;;38.25;33.60;;;19.20;99.90;;;;;;4976163;28;20070;-71
2022/08/24 05:37:38;;;;;;;35.55;30.65;;;19.20;99.90;;;;;;4976668;28;20109;-72
2022/08/24 05:40:07;;;;;;;39.53;32.30;;;19.20;99.90;;;;;;4976679;28;20061;-71
2022/08/24 05:42:34;;;;;;;35.05;31.38;;;19.20;99.90;;;;;;4976570;28;20065;-71
2022/08/24 05:45:00;;;;;;;30.23;27.13;;;19.30;99.90;;;;;;4976801;28;20050;-71
2022/08/24 05:47:25;;;;;;;37.53;33.53;;;19.30;99.90;;;;;;4976538;28;20469;-75
2022/08/24 05:49:52;;;;;;;36.63;32.10;;;19.40;99.90;;;;;;4976062;28;20429;-71
2022/08/24 05:52:19;;;;;;;37.63;33.80;;;19.40;99.90;;;;;;4975941;28;20046;-70
2022/08/24 05:54:45;;;;;;;38.97;34.13;;;19.40;99.90;;;;;;4976281;28;20057;-71
2022/08/24 05:57:10;;;;;;;39.70;34.30;;;19.40;99.90;;;;;;4976323;28;20053;-71
2022/08/24 05:59:36;;;;;;;32.65;28.48;;;19.50;99.90;;;;;;4976298;28;20054;-71
2022/08/24 06:02:03;;;;;;;36.88;32.15;;;19.50;99.90;;;;;;4976066;28;20112;-71
2022/08/24 06:04:28;;;;;;;38.40;33.20;;;19.60;99.90;;;;;;4976201;28;20057;-72
2022/08/24 06:06:54;;;;;;;42.85;33.83;;;19.70;99.90;;;;;;4976108;28;20043;-72
2022/08/24 06:09:20;;;;;;;36.95;29.40;;;19.70;99.90;;;;;;4976261;28;20398;-71
2022/08/24 06:11:47;;;;;;;33.88;27.25;;;19.70;99.90;;;;;;4976313;28;20164;-72
2022/08/24 06:14:15;;;;;;;37.22;30.33;;;19.80;99.90;;;;;;4976241;28;20054;-69
2022/08/24 06:16:44;;;;;;;37.05;33.03;;;19.70;99.90;;;;;;4975476;28;20082;-72
2022/08/24 06:19:13;;;;;;;41.78;32.15;;;19.80;99.90;;;;;;4975736;28;20046;-72
2022/08/24 06:21:39;;;;;;;33.50;29.95;;;19.90;99.90;;;;;;4975961;28;20062;-71
2022/08/24 06:24:06;;;;;;;39.95;32.15;;;19.90;99.90;;;;;;4975632;28;20039;-71
2022/08/24 06:29:17;;;;;;;38.05;31.10;;;20.00;99.90;;;;;;4975877;28;20054;-70
2022/08/24 06:31:45;;;;;;;37.75;31.35;;;20.10;99.90;;;;;;4976050;28;20459;-70
2022/08/24 06:34:15;;;;;;;37.45;30.27;;;20.10;99.90;;;;;;4975899;28;20043;-71
2022/08/24 06:36:41;;;;;;;41.47;30.85;;;20.20;99.90;;;;;;4975996;28;20043;-71
2022/08/24 06:39:07;;;;;;;38.35;31.17;;;20.30;99.90;;;;;;4975744;28;20861;-70
2022/08/24 06:41:35;;;;;;;37.50;32.25;;;20.30;99.90;;;;;;4975657;28;20043;-70
2022/08/24 06:44:00;;;;;;;36.83;32.83;;;20.50;99.90;;;;;;4975815;28;20125;-71
2022/08/24 06:46:27;;;;;;;37.13;31.45;;;20.60;99.90;;;;;;4975726;28;20477;-71
2022/08/24 06:48:53;;;;;;;37.20;31.70;;;20.50;99.90;;;;;;4975871;28;20101;-71
2022/08/24 06:51:21;;;;;;;35.30;31.63;;;20.70;99.90;;;;;;4975828;28;20043;-72
2022/08/24 06:53:47;;;;;;;37.08;31.80;;;20.70;99.90;;;;;;4975585;28;20039;-70
2022/08/24 06:56:13;;;;;;;38.45;31.42;;;20.80;99.90;;;;;;4975986;28;20047;-71
2022/08/24 06:58:39;;;;;;;35.40;30.50;;;20.90;99.90;;;;;;4974677;28;20043;-71
2022/08/24 07:01:14;;;;;;;40.08;33.15;;;20.90;99.90;;;;;;4975746;28;20050;-72
2022/08/24 07:03:40;;;;;;;40.60;32.15;;;21.00;99.90;;;;;;4975237;28;20062;-70
2022/08/24 07:06:06;;;;;;;37.00;32.95;;;21.20;99.90;;;;;;4976010;28;20047;-71
2022/08/24 07:08:32;;;;;;;36.05;31.42;;;21.20;99.90;;;;;;4975695;28;20043;-71
2022/08/24 07:10:58;;;;;;;39.20;32.17;;;21.30;99.90;;;;;;4976850;28;20062;-70
2022/08/24 07:13:24;;;;;;;35.47;30.70;;;21.30;99.90;;;;;;4979029;28;20470;-70
2022/08/24 07:15:51;;;;;;;40.45;31.45;;;21.40;99.90;;;;;;4979318;28;20053;-71
2022/08/24 07:18:18;;;;;;;33.83;30.23;;;21.50;99.90;;;;;;4979046;28;20118;-72
2022/08/24 07:20:45;;;;;;;33.83;30.33;;;21.60;99.90;;;;;;4961783;28;20088;-71
2022/08/24 07:23:13;;;;;;;34.08;29.88;;;21.60;99.90;;;;;;4979140;28;20138;-71
2022/08/24 07:25:46;;;;;;;33.50;29.88;;;21.60;99.90;;;;;;4979003;28;20288;-68
2022/08/24 07:28:12;;;;;;;34.42;28.80;;;21.70;99.90;;;;;;4979077;28;20182;-68
2022/08/24 07:30:39;;;;;;;35.90;29.35;;;21.70;99.90;;;;;;4978970;28;20043;-70
2022/08/24 07:33:05;;;;;;;32.40;27.73;;;21.80;99.90;;;;;;4958270;29;20072;-69
2022/08/24 07:35:32;;;;;;;32.78;29.45;;;21.80;99.90;;;;;;4959486;29;20160;-69
2022/08/24 07:37:59;;;;;;;31.48;27.98;;;21.90;99.90;;;;;;4959638;29;20095;-69
2022/08/24 07:40:26;;;;;;;31.33;28.05;;;22.00;99.90;;;;;;4959346;29;20141;-68
2022/08/24 07:42:53;;;;;;;33.80;28.23;;;22.10;99.90;;;;;;4959415;29;20058;-68
2022/08/24 07:45:21;;;;;;;26.52;23.38;;;22.10;99.90;;;;;;4959355;29;20043;-69
2022/08/24 07:47:47;;;;;;;24.40;21.88;;;22.20;99.90;;;;;;4975823;28;20493;-68
2022/08/24 07:50:13;;;;;;;28.42;24.52;;;22.20;99.90;;;;;;4978644;28;20043;-69
2022/08/24 07:52:40;;;;;;;24.55;20.65;;;22.30;99.90;;;;;;4945634;28;20065;-69
2022/08/24 07:55:06;;;;;;;26.83;24.02;;;22.30;99.90;;;;;;4978148;28;20127;-71
2022/08/24 07:57:32;;;;;;;28.67;22.65;;;22.40;99.90;;;;;;4978475;28;20112;-68
2022/08/24 07:59:59;;;;;;;25.63;22.48;;;22.50;99.90;;;;;;4978736;28;20058;-69
2022/08/24 08:02:25;;;;;;;27.13;24.25;;;22.40;99.90;;;;;;4978580;28;20086;-72
2022/08/24 08:04:53;;;;;;;27.60;24.50;;;22.60;99.90;;;;;;4978397;28;20093;-72
2022/08/24 08:07:18;;;;;;;27.15;24.23;;;22.70;99.90;;;;;;4978399;28;20114;-72
2022/08/24 08:09:44;;;;;;;29.50;23.45;;;22.80;99.90;;;;;;4977872;28;20496;-70
2022/08/24 08:12:09;;;;;;;27.52;24.63;;;22.90;99.90;;;;;;4977983;28;20082;-70
2022/08/24 08:14:36;;;;;;;27.08;24.33;;;22.90;99.90;;;;;;4978014;28;20185;-69
2022/08/24 08:17:01;;;;;;;28.42;22.42;;;22.90;99.90;;;;;;4978267;28;20051;-69
2022/08/24 08:19:27;;;;;;;26.98;24.20;;;23.00;99.90;;;;;;4978365;28;20062;-70
2022/08/24 08:24:38;;;;;;;;;;;23.10;99.90;;;;;;4977866;28;20078;-69
2022/08/24 08:27:05;;;;;;;26.52;23.67;;;23.30;99.90;;;;;;4978009;28;19922;-70
2022/08/24 08:29:32;;;;;;;25.70;23.05;;;23.30;99.90;;;;;;4977870;28;20047;-69
2022/08/24 08:31:59;;;;;;;28.27;23.48;;;23.40;99.90;;;;;;4978027;28;20035;-69
2022/08/24 08:34:25;;;;;;;29.25;23.67;;;23.40;99.90;;;;;;4977807;28;20082;-69
2022/08/24 08:36:52;;;;;;;24.15;21.48;;;23.30;99.90;;;;;;4977953;28;20043;-69
2022/08/24 08:39:20;;;;;;;22.52;19.27;;;23.40;99.90;;;;;;4977586;28;20050;-69
2022/08/24 08:42:23;;;;;;;24.73;22.08;;;23.60;99.90;;;;;;4977698;28;20057;-69
2022/08/24 08:45:06;;;;;;;23.15;20.45;;;23.50;99.90;;;;;;4977694;28;20054;-68
2022/08/24 08:47:50;;;;;;;24.35;21.08;;;23.60;99.90;;;;;;4977658;28;20130;-69
2022/08/24 08:50:51;;;;;;;23.30;20.77;;;23.50;99.90;;;;;;4976959;28;20046;-69
2022/08/24 08:53:30;;;;;;;23.63;21.13;;;23.70;99.90;;;;;;4947248;28;20066;-68
2022/08/24 08:56:26;;;;;;;25.95;19.70;;;23.70;99.90;;;;;;4977626;28;20042;-70
2022/08/24 08:59:16;;;;;;;19.80;17.80;;;23.80;99.90;;;;;;4977327;28;20063;-68
2022/08/24 09:01:49;;;;;;;19.80;17.27;;;23.80;99.90;;;;;;4977042;28;20090;-69
2022/08/24 09:04:20;;;;;;;23.30;20.02;;;24.00;99.90;;;;;;4977062;28;20050;-69
2022/08/24 09:06:53;;;;;;;20.15;18.13;;;24.00;99.90;;;;;;4977310;28;20098;-71
2022/08/24 09:09:40;;;;;;;25.38;20.88;;;24.10;99.90;;;;;;4977563;28;20094;-69
2022/08/24 09:12:20;;;;;;;18.05;16.17;;;24.10;99.90;;;;;;4977048;28;20050;-70
2022/08/24 09:15:19;;;;;;;22.95;20.55;;;24.30;99.90;;;;;;4977009;28;20039;-69
2022/08/24 09:18:26;;;;;;;22.42;19.10;;;24.40;99.90;;;;;;4976815;28;20055;-69
2022/08/24 09:21:27;;;;;;;21.58;18.98;;;24.40;99.90;;;;;;4976839;28;20051;-69
2022/08/24 09:24:04;;;;;;;22.88;17.38;;;24.40;99.90;;;;;;4963085;28;20054;-69
2022/08/24 09:26:41;;;;;;;16.75;14.93;;;24.40;99.90;;;;;;4977079;28;20047;-70
2022/08/24 09:29:15;;;;;;;19.20;17.00;;;24.50;99.90;;;;;;4976309;28;20528;-69
2022/08/24 09:31:47;;;;;;;18.30;16.40;;;24.50;99.90;;;;;;4976173;28;20442;-69
2022/08/24 09:34:24;;;;;;;17.83;15.00;;;24.40;99.90;;;;;;4975999;28;20125;-68
2022/08/24 09:36:56;;;;;;;19.48;13.80;;;24.50;99.90;;;;;;4976808;28;20057;-69
2022/08/24 09:39:57;;;;;;;16.67;12.35;;;24.60;99.90;;;;;;4976713;28;20055;-68
2022/08/24 09:42:23;;;;;;;12.02;10.27;;;24.70;99.90;;;;;;4952111;28;20047;-70
2022/08/24 09:45:10;;;;;;;12.55;11.25;;;24.80;99.90;;;;;;4976434;28;20125;-69
2022/08/24 09:47:38;;;;;;;12.45;11.15;;;24.90;99.90;;;;;;4976548;28;20101;-69
2022/08/24 09:50:36;;;;;;;12.35;11.05;;;24.90;99.90;;;;;;4959856;28;20062;-69
2022/08/24 09:53:35;;;;;;;10.98;9.88;;;24.90;99.90;;;;;;4936771;28;20090;-68
2022/08/24 09:56:13;;;;;;;10.77;9.50;;;24.90;99.90;;;;;;4976397;28;20078;-69
2022/08/24 09:59:10;;;;;;;14.15;8.95;;;25.00;99.90;;;;;;4976373;28;20058;-69
2022/08/24 10:01:49;;;;;;;10.88;9.05;;;25.00;99.90;;;;;;4976042;28;20054;-69
2022/08/24 10:04:42;;;;;;;13.32;8.23;;;25.00;99.90;;;;;;4976248;28;20104;-70
2022/08/24 10:07:32;;;;;;;10.35;7.75;;;25.10;99.90;;;;;;4976293;28;20046;-70
2022/08/24 10:10:20;;;;;;;12.52;9.27;;;25.20;99.90;;;;;;4976303;28;20043;-69
2022/08/24 10:13:03;;;;;;;15.93;9.45;;;25.10;99.90;;;;;;4976122;28;20046;-69
2022/08/24 10:15:47;;;;;;;11.18;8.52;;;25.10;99.90;;;;;;4975750;28;20060;-69
2022/08/24 10:18:31;;;;;;;9.70;7.57;;;25.10;99.90;;;;;;4976378;28;20145;-70
2022/08/24 10:20:59;;;;;;;10.15;9.15;;;25.20;99.90;;;;;;4976094;28;20053;-70
2022/08/24 10:23:46;;;;;;;9.23;7.40;;;25.10;99.90;;;;;;4976327;28;20365;-70
2022/08/24 10:26:41;;;;;;;10.18;8.23;;;25.20;99.90;;;;;;4976078;28;20046;-69
2022/08/24 10:29:48;;;;;;;12.15;9.80;;;25.20;99.90;;;;;;4968280;28;20062;-70
2022/08/24 10:32:46;;;;;;;11.65;9.27;;;25.30;99.90;;;;;;4975850;28;20038;-69
2022/08/24 10:35:32;;;;;;;16.33;10.43;;;25.30;99.90;;;;;;4971184;28;20458;-68
2022/08/24 10:39:39;;;;;;;11.60;9.02;;;25.30;99.90;;;;;;4975683;28;20101;-70
2022/08/24 10:40:53;;;;;;;8.70;6.88;;;25.20;99.90;;;;;;4975488;28;20051;-69
2022/08/24 10:43:50;;;;;;;9.27;7.55;;;25.60;99.90;;;;;;4976390;28;20473;-69
2022/08/24 10:46:56;;;;;;;11.90;8.57;;;25.60;99.90;;;;;;4977848;28;20050;-69
2022/08/24 10:49:53;;;;;;;9.57;7.88;;;25.60;99.90;;;;;;4960642;28;20114;-69
2022/08/24 10:52:21;;;;;;;7.78;6.97;;;25.60;99.90;;;;;;4960258;29;20047;-69
2022/08/24 10:54:47;;;;;;;8.07;7.22;;;25.60;99.90;;;;;;4959411;29;20366;-70
2022/08/24 10:57:37;;;;;;;9.05;6.53;;;25.60;99.90;;;;;;4960361;28;20062;-69
2022/08/24 11:00:13;;;;;;;9.48;6.70;;;25.60;99.90;;;;;;4960135;28;20134;-70
2022/08/24 11:02:42;;;;;;;6.28;4.45;;;25.60;99.90;;;;;;4973153;28;20481;-70
2022/08/24 11:05:29;;;;;;;7.15;4.38;;;25.90;99.90;;;;;;4979027;28;20061;-69
2022/08/24 11:08:01;;;;;;;7.15;5.95;;;25.90;99.90;;;;;;4979090;28;20458;-71
2022/08/24 11:10:30;;;;;;;10.18;5.90;;;25.90;99.90;;;;;;4979715;28;20043;-70
2022/08/24 11:13:19;;;;;;;5.70;5.03;;;25.80;99.90;;;;;;4979329;28;20442;-70
2022/08/24 11:15:55;;;;;;;5.13;4.10;;;25.90;99.90;;;;;;4979238;28;20074;-68
2022/08/24 11:18:21;;;;;;;5.28;3.50;;;25.90;99.90;;;;;;4979406;28;20078;-69
2022/08/24 11:20:51;;;;;;;5.22;3.67;;;25.90;99.90;;;;;;4979236;28;20039;-69
2022/08/24 11:23:22;;;;;;;7.68;5.82;;;26.00;99.90;;;;;;4978815;28;20047;-69
2022/08/24 11:25:53;;;;;;;5.30;4.55;;;26.00;99.90;;;;;;4978975;28;20126;-70
2022/08/24 11:28:35;;;;;;;6.88;4.00;;;26.20;99.90;;;;;;4978858;28;20043;-70
2022/08/24 11:31:02;;;;;;;4.07;3.28;;;26.10;99.90;;;;;;4978604;28;20062;-70
2022/08/24 11:33:42;;;;;;;5.70;3.65;;;26.30;99.90;;;;;;4979077;28;20104;-69
2022/08/24 11:36:16;;;;;;;5.53;3.47;;;26.40;99.90;;;;;;4978835;28;20466;-70
2022/08/24 11:38:41;;;;;;;5.43;3.77;;;26.60;99.90;;;;;;4978184;28;20051;-71
2022/08/24 11:41:14;;;;;;;5.63;4.15;;;26.50;99.90;;;;;;4961313;28;20100;-70
2022/08/24 11:43:52;;;;;;;5.53;3.65;;;26.60;99.90;;;;;;4978924;28;20473;-69
2022/08/24 11:46:26;;;;;;;3.33;2.67;;;26.70;99.90;;;;;;4978943;28;20370;-70
2022/08/24 11:49:02;;;;;;;4.93;2.78;;;26.60;99.90;;;;;;4978684;28;20058;-70
2022/08/24 11:51:58;;;;;;;4.70;3.30;;;26.60;99.90;;;;;;4978716;28;20047;-70
2022/08/24 11:54:37;;;;;;;7.05;3.38;;;26.70;99.90;;;;;;4978386;28;20449;-69
2022/08/24 11:57:30;;;;;;;4.97;3.85;;;26.70;99.90;;;;;;4978237;28;20105;-69
2022/08/24 12:00:14;;;;;;;6.82;3.40;;;26.70;99.90;;;;;;4978483;28;20055;-70
2022/08/24 12:03:10;;;;;;;5.80;3.63;;;26.80;99.90;;;;;;4978561;28;20134;-70
2022/08/24 12:05:53;;;;;;;6.10;3.30;;;26.80;99.90;;;;;;4978553;28;20056;-69
2022/08/24 12:08:44;;;;;;;4.93;2.58;;;26.90;99.90;;;;;;4978070;28;20047;-69
2022/08/24 12:11:30;;;;;;;4.85;3.33;;;27.10;99.90;;;;;;4978402;28;20185;-69
2022/08/24 12:14:11;;;;;;;5.63;2.50;;;27.10;99.90;;;;;;4977594;28;20058;-69
2022/08/24 12:17:03;;;;;;;3.88;2.53;;;27.10;99.90;;;;;;4978399;28;20082;-70
2022/08/24 12:19:36;;;;;;;4.95;2.80;;;27.30;99.90;;;;;;4978260;28;20142;-69
2022/08/24 12:22:05;;;;;;;5.28;2.47;;;27.30;99.90;;;;;;4977759;28;20053;-70
2022/08/24 12:24:41;;;;;;;3.40;2.88;;;27.40;99.90;;;;;;4977861;28;20450;-70
2022/08/24 12:27:13;;;;;;;6.40;2.85;;;27.30;99.90;;;;;;4978098;28;20090;-70
2022/08/24 12:30:11;;;;;;;4.88;3.22;;;27.40;99.90;;;;;;4978094;28;20089;-70
2022/08/24 12:33:01;;;;;;;3.95;2.40;;;27.40;99.90;;;;;;4977879;28;20097;-69
2022/08/24 12:35:32;;;;;;;4.38;1.85;;;27.40;99.90;;;;;;4977702;28;20057;-70
2022/08/24 12:38:07;;;;;;;3.33;2.17;;;27.50;99.90;;;;;;4977651;28;20038;-69
2022/08/24 12:40:51;;;;;;;2.95;2.60;;;27.60;99.90;;;;;;4977813;28;20054;-70
2022/08/24 12:43:31;;;;;;;2.17;1.50;;;27.90;99.90;;;;;;4977753;28;20043;-71
2022/08/24 12:46:00;;;;;;;1.92;1.70;;;27.90;99.90;;;;;;4978146;28;20050;-69
2022/08/24 12:48:47;;;;;;;2.30;1.70;;;28.00;99.90;;;;;;4977704;28;20062;-71
2022/08/24 12:51:43;;;;;;;1.70;1.60;;;28.10;99.90;;;;;;4977294;28;20043;-70
2022/08/24 12:54:30;;;;;;;4.03;2.05;;;28.30;99.90;;;;;;4977335;28;20049;-71
2022/08/24 12:56:56;;;;;;;2.67;2.10;;;28.30;99.90;;;;;;4977803;28;20046;-70
2022/08/24 12:59:28;;;;;;;4.13;2.30;;;28.70;99.90;;;;;;4976997;28;20077;-70
2022/08/24 13:02:09;;;;;;;2.92;1.92;;;29.00;99.90;;;;;;4976483;28;20393;-70
2022/08/24 13:04:51;;;;;;;4.60;2.20;;;29.50;99.90;;;;;;4976898;28;20054;-71
2022/08/24 13:07:23;;;;;;;4.13;2.05;;;29.80;99.70;;;;;;4977287;28;20520;-70